Time;durP1;ratioP1;P1;durP2;ratioP2;P2;SDS_P1;SDS_P2;PMS_P1;PMS_P2;Temp;Humidity;BMP_temperature;BMP_pressure;BME280_temperature;BME280_humidity;BME280_pressure;Samples;Min_cycle;Max_cycle;Signal;HPM_P1;HPM_P2
2024/04/19 00:01:32;;;;;;;6.75;3.05;;;;;;;6.79;69.76;98623.28;5382766;26;20011;-85
2024/04/19 00:03:57;;;;;;;6.07;3.28;;;;;;;6.81;68.85;98623.06;5380696;26;20012;-85
2024/04/19 00:06:22;;;;;;;5.38;3.63;;;;;;;6.61;69.75;98593.41;5380619;26;20001;-85
2024/04/19 00:08:48;;;;;;;3.42;2.22;;;;;;;6.92;69.50;98626.75;5376609;26;20004;-85
2024/04/19 00:11:13;;;;;;;3.00;2.50;;;;;;;6.89;69.32;98611.28;5372950;26;20459;-84
2024/04/19 00:13:39;;;;;;;5.88;3.35;;;;;;;6.77;69.86;98598.03;5377914;26;20079;-84
2024/04/19 00:16:04;;;;;;;4.90;2.78;;;;;;;6.50;70.25;98573.00;5405312;26;20014;-85
2024/04/19 00:18:29;;;;;;;4.95;3.45;;;;;;;6.66;69.68;98575.75;5352610;26;20000;-84
2024/04/19 00:20:56;;;;;;;5.35;3.17;;;;;;;6.80;69.31;98576.34;5316493;26;20009;-84
2024/04/19 00:23:24;;;;;;;6.68;3.00;;;;;;;6.95;69.48;98602.41;5385169;26;20000;-84
2024/04/19 00:25:51;;;;;;;6.80;3.28;;;;;;;6.91;69.67;98599.41;5379755;26;20007;-85
2024/04/19 00:28:16;;;;;;;3.63;2.55;;;;;;;6.78;69.45;98558.03;5352450;26;20020;-85
2024/04/19 00:30:42;;;;;;;6.30;4.03;;;;;;;6.77;70.12;98582.13;5380041;26;20007;-84
2024/04/19 00:33:07;;;;;;;5.55;2.90;;;;;;;6.99;69.82;98588.44;5349675;26;20079;-85
2024/04/19 00:35:32;;;;;;;5.78;3.20;;;;;;;6.62;69.65;98557.88;5385639;26;20466;-85
2024/04/19 00:37:58;;;;;;;8.48;3.47;;;;;;;6.90;69.97;98592.50;5379444;26;20016;-85
2024/04/19 00:40:23;;;;;;;5.07;2.95;;;;;;;6.98;69.90;98586.03;5381025;26;20440;-84
2024/04/19 00:42:50;;;;;;;8.38;3.10;;;;;;;6.77;69.10;98540.47;5380998;26;20140;-84
2024/04/19 00:45:35;;;;;;;4.13;2.72;;;;;;;6.91;69.30;98567.59;5376006;26;20011;-83
2024/04/19 00:48:16;;;;;;;8.10;3.05;;;;;;;6.70;69.79;98563.69;5374627;26;20086;-85
2024/04/19 00:50:43;;;;;;;5.90;2.80;;;;;;;6.78;69.78;98570.47;5382922;26;20441;-85
2024/04/19 00:53:10;;;;;;;9.20;3.42;;;;;;;6.79;69.66;98554.31;5376725;26;20005;-85
2024/04/19 00:55:36;;;;;;;5.72;3.55;;;;;;;6.69;69.39;98516.16;5380789;26;20009;-85
2024/04/19 00:58:02;;;;;;;5.68;3.53;;;;;;;6.65;69.49;98533.56;5367742;26;20008;-85
2024/04/19 01:00:29;;;;;;;5.00;3.20;;;;;;;6.73;69.84;98559.72;5382716;26;20000;-84
2024/04/19 01:02:55;;;;;;;4.20;3.65;;;;;;;6.32;69.66;98480.31;5381082;26;20444;-84
2024/04/19 01:05:21;;;;;;;4.93;4.05;;;;;;;6.49;69.63;98511.19;5344979;26;20375;-83
2024/04/19 01:07:48;;;;;;;4.22;3.50;;;;;;;6.63;69.88;98525.84;5364078;26;20018;-85
2024/04/19 01:10:14;;;;;;;4.05;3.63;;;;;;;6.73;69.17;98538.53;5372808;26;20012;-85
2024/04/19 01:12:39;;;;;;;7.05;3.88;;;;;;;6.70;69.56;98534.50;5353503;26;20008;-85
2024/04/19 01:15:18;;;;;;;8.10;4.03;;;;;;;6.72;69.82;98544.88;5347322;26;20005;-84
2024/04/19 01:17:44;;;;;;;6.47;4.15;;;;;;;6.79;69.30;98540.28;5371715;26;20010;-85
2024/04/19 01:20:09;;;;;;;6.03;4.38;;;;;;;6.31;69.60;98442.38;5379288;26;20514;-85
2024/04/19 01:22:35;;;;;;;7.85;3.97;;;;;;;6.54;69.62;98494.59;5385253;26;20002;-85
2024/04/19 01:25:03;;;;;;;9.13;4.85;;;;;;;6.56;69.89;98516.38;5376997;26;20001;-84
2024/04/19 01:27:29;;;;;;;7.75;4.07;;;;;;;6.88;69.75;98524.81;5382119;26;20410;-83
2024/04/19 01:29:55;;;;;;;6.40;3.97;;;;;;;6.90;69.67;98518.22;5372036;26;20073;-85
2024/04/19 01:32:20;;;;;;;9.15;4.50;;;;;;;6.76;69.89;98490.34;5384561;26;19992;-85
2024/04/19 01:34:46;;;;;;;6.47;4.45;;;;;;;6.89;70.22;98515.78;5371914;26;20011;-86
2024/04/19 01:37:11;;;;;;;6.28;4.03;;;;;;;6.92;69.78;98500.25;5345375;26;20448;-85
2024/04/19 01:39:37;;;;;;;8.02;5.25;;;;;;;6.61;69.61;98476.75;5380848;26;20464;-84
2024/04/19 01:42:04;;;;;;;6.25;3.88;;;;;;;6.72;69.88;98494.50;5371189;26;20333;-85
2024/04/19 01:44:29;;;;;;;8.48;4.38;;;;;;;6.81;69.51;98483.28;5344101;26;20565;-85
2024/04/19 01:46:55;;;;;;;8.50;4.38;;;;;;;6.76;69.72;98471.75;5380592;26;20000;-85
2024/04/19 01:49:20;;;;;;;6.80;3.67;;;;;;;6.55;69.75;98446.63;5372048;26;19997;-85
2024/04/19 01:51:45;;;;;;;11.55;5.05;;;;;;;6.62;70.17;98451.81;5381493;26;20000;-85
2024/04/19 01:54:11;;;;;;;6.90;4.15;;;;;;;6.58;69.80;98453.31;5320265;26;20019;-84
2024/04/19 01:56:37;;;;;;;9.30;4.80;;;;;;;6.76;70.28;98477.06;5375440;26;20335;-85
2024/04/19 01:59:02;;;;;;;5.05;3.88;;;;;;;6.47;69.83;98417.03;5366106;26;20469;-84
2024/04/19 02:01:27;;;;;;;6.47;3.53;;;;;;;6.57;69.72;98444.59;5331944;26;20024;-84
2024/04/19 02:03:53;;;;;;;8.98;4.65;;;;;;;6.71;69.85;98450.44;5362925;26;19996;-85
2024/04/19 02:06:18;;;;;;;5.95;4.35;;;;;;;6.61;69.71;98436.97;5368441;26;19996;-85
2024/04/19 02:08:44;;;;;;;8.75;3.85;;;;;;;6.71;69.53;98432.69;5362529;26;20004;-85
2024/04/19 02:11:09;;;;;;;4.78;3.85;;;;;;;6.66;69.63;98431.78;5361295;26;20331;-85
2024/04/19 02:13:34;;;;;;;5.35;3.92;;;;;;;6.54;69.48;98415.06;5363666;26;20874;-85
2024/04/19 02:16:00;;;;;;;5.65;3.63;;;;;;;6.72;69.91;98436.97;5309871;26;20678;-85
2024/04/19 02:18:26;;;;;;;8.60;3.75;;;;;;;6.82;69.62;98437.16;5368007;26;20004;-85
2024/04/19 02:20:52;;;;;;;6.20;4.22;;;;;;;6.23;69.26;98336.75;5366774;26;20341;-85
2024/04/19 02:23:37;;;;;;;4.88;3.75;;;;;;;6.60;69.24;98384.97;5371102;26;20012;-85
2024/04/19 02:26:04;;;;;;;7.15;4.05;;;;;;;6.69;70.02;98412.72;5360455;26;20007;-85
2024/04/19 02:31:13;;;;;;;8.35;6.68;;;;;;;6.63;70.24;98395.13;5361866;26;20011;-85
2024/04/19 02:33:38;;;;;;;9.18;5.18;;;;;;;6.31;69.75;98340.91;5338115;26;20004;-82
2024/04/19 02:36:05;;;;;;;5.72;4.30;;;;;;;6.47;70.24;98366.66;5363933;26;20428;-85
2024/04/19 02:38:30;;;;;;;7.28;4.57;;;;;;;6.63;70.00;98368.59;5371192;26;20100;-85
2024/04/19 02:40:55;;;;;;;9.77;4.30;;;;;;;6.61;69.88;98346.81;5339831;26;20004;-85
2024/04/19 02:43:21;;;;;;;7.05;4.72;;;;;;;6.70;69.89;98367.44;5342834;26;20013;-85
2024/04/19 02:45:46;;;;;;;6.88;4.03;;;;;;;6.40;69.82;98297.09;5362906;26;20012;-85
2024/04/19 02:48:12;;;;;;;5.28;4.28;;;;;;;6.38;69.97;98304.44;5359340;26;20016;-85
2024/04/19 02:50:37;;;;;;;14.80;4.50;;;;;;;6.69;69.83;98351.75;5365096;26;20020;-86
2024/04/19 02:53:03;;;;;;;4.00;3.60;;;;;;;6.20;70.01;98241.03;5370946;26;20008;-85
2024/04/19 02:55:28;;;;;;;8.38;4.65;;;;;;;6.80;69.79;98342.94;5368257;26;20008;-85
2024/04/19 02:57:53;;;;;;;6.88;4.40;;;;;;;6.35;70.45;98284.56;5368369;26;20078;-84
2024/04/19 03:00:19;;;;;;;6.93;4.15;;;;;;;6.66;70.17;98325.72;5345513;26;20015;-85
2024/04/19 03:02:44;;;;;;;7.90;4.40;;;;;;;5.64;71.24;98216.00;5344933;26;20000;-85
2024/04/19 03:05:10;;;;;;;5.50;4.18;;;;;;;6.21;71.12;98287.69;5371540;26;20013;-85
2024/04/19 03:07:35;;;;;;;5.05;4.47;;;;;;;6.36;70.58;98327.72;5310383;26;20334;-86
2024/04/19 03:10:01;;;;;;;6.88;4.32;;;;;;;6.44;70.71;98314.13;5370633;26;20140;-86
2024/04/19 03:12:26;;;;;;;7.05;3.88;;;;;;;6.34;70.25;98274.97;5365471;26;20012;-85
2024/04/19 03:14:51;;;;;;;4.90;3.65;;;;;;;6.61;69.75;98322.97;5339902;26;20011;-86
2024/04/19 03:17:17;;;;;;;5.60;4.57;;;;;;;6.57;69.69;98305.91;5363894;26;19997;-84
2024/04/19 03:19:42;;;;;;;7.20;3.53;;;;;;;6.51;69.88;98297.03;5366290;26;20000;-83
2024/04/19 03:22:08;;;;;;;8.35;3.70;;;;;;;6.31;70.46;98293.19;5369016;26;20013;-85
2024/04/19 03:24:34;;;;;;;7.32;4.45;;;;;;;6.36;70.21;98282.69;5369562;26;20082;-84
2024/04/19 03:27:00;;;;;;;6.30;4.00;;;;;;;6.34;69.96;98263.56;5362035;26;20012;-84
2024/04/19 03:29:26;;;;;;;7.30;3.72;;;;;;;6.33;70.26;98272.56;5363999;26;20008;-84
2024/04/19 03:31:51;;;;;;;8.05;4.40;;;;;;;6.34;69.98;98272.31;5370458;26;20083;-85
2024/04/19 03:34:16;;;;;;;6.55;3.70;;;;;;;6.15;70.85;98257.63;5363531;26;20008;-84
2024/04/19 03:36:42;;;;;;;6.72;4.30;;;;;;;6.31;70.51;98266.69;5368612;26;20012;-84
2024/04/19 03:39:09;;;;;;;9.98;5.43;;;;;;;6.34;71.05;98269.66;5376924;26;19993;-84
2024/04/19 03:41:37;;;;;;;6.57;5.05;;;;;;;6.31;71.83;98264.84;5370552;26;20021;-84
2024/04/19 03:46:47;;;;;;;11.93;7.18;;;;;;;6.37;72.16;98240.06;5371858;26;20098;-84
2024/04/19 03:49:12;;;;;;;9.07;6.05;;;;;;;6.12;73.13;98223.66;5369610;26;20505;-85
2024/04/19 03:51:37;;;;;;;9.45;6.13;;;;;;;6.28;72.92;98233.53;5318022;26;20004;-85
2024/04/19 03:54:03;;;;;;;10.50;7.05;;;;;;;6.38;73.50;98238.19;5370449;26;20475;-85
2024/04/19 03:56:28;;;;;;;12.75;7.15;;;;;;;6.28;73.14;98217.63;5364440;26;19997;-84
2024/04/19 03:58:54;;;;;;;10.63;7.30;;;;;;;6.40;73.43;98214.94;5364061;26;20000;-85
2024/04/19 04:01:19;;;;;;;13.93;7.40;;;;;;;6.35;74.44;98233.38;5371242;26;20008;-85
2024/04/19 04:03:44;;;;;;;11.65;8.30;;;;;;;6.09;75.37;98187.06;5371259;26;20012;-85
2024/04/19 04:06:10;;;;;;;15.50;8.13;;;;;;;6.22;75.24;98207.16;5375423;26;20472;-85
2024/04/19 04:08:35;;;;;;;16.17;9.07;;;;;;;6.33;75.76;98206.31;5376527;26;20005;-84
2024/04/19 04:11:00;;;;;;;14.13;8.70;;;;;;;6.34;75.25;98200.78;5378745;26;19996;-84
2024/04/19 04:13:29;;;;;;;12.43;8.98;;;;;;;6.18;76.38;98198.06;5376044;26;20048;-85
2024/04/19 04:15:54;;;;;;;12.70;8.35;;;;;;;6.24;76.21;98179.38;5375631;26;20002;-85
2024/04/19 04:18:19;;;;;;;15.10;8.95;;;;;;;6.03;76.67;98164.13;5376474;26;20460;-86
2024/04/19 04:20:45;;;;;;;13.27;8.70;;;;;;;6.07;76.95;98158.13;5375895;26;20012;-85
2024/04/19 04:23:10;;;;;;;12.05;8.18;;;;;;;6.12;77.55;98175.97;5385647;26;20016;-87
2024/04/19 04:25:36;;;;;;;12.32;8.52;;;;;;;5.89;77.53;98121.25;5381308;26;20073;-87
2024/04/19 04:28:03;;;;;;;15.70;10.32;;;;;;;5.76;78.07;98102.16;5320495;26;20004;-86
2024/04/19 04:30:28;;;;;;;14.70;9.52;;;;;;;5.96;78.89;98161.63;5367726;26;20012;-87
2024/04/19 04:32:54;;;;;;;13.85;10.90;;;;;;;5.59;78.66;98083.53;5352999;26;20000;-86
2024/04/19 04:35:19;;;;;;;19.65;9.75;;;;;;;5.81;79.28;98137.47;5319254;26;19993;-87
2024/04/19 04:37:44;;;;;;;14.05;10.05;;;;;;;5.93;79.59;98140.13;5375479;26;20023;-87
2024/04/19 04:40:10;;;;;;;12.05;8.05;;;;;;;5.94;79.27;98110.72;5376118;26;19996;-86
2024/04/19 04:42:36;;;;;;;9.73;6.93;;;;;;;5.97;79.33;98134.09;5384242;26;20004;-87
2024/04/19 04:45:02;;;;;;;15.82;8.23;;;;;;;6.06;79.28;98123.94;5352046;26;19993;-87
2024/04/19 04:47:27;;;;;;;16.25;9.05;;;;;;;5.89;79.57;98108.00;5376754;26;20012;-86
2024/04/19 04:49:52;;;;;;;12.40;9.00;;;;;;;6.14;79.30;98130.72;5378453;26;20012;-87
2024/04/19 04:52:18;;;;;;;12.80;9.80;;;;;;;5.51;80.21;98062.75;5387145;26;20000;-86
2024/04/19 04:54:43;;;;;;;10.95;7.80;;;;;;;6.07;79.94;98105.16;5329088;26;20007;-87
2024/04/19 04:57:09;;;;;;;11.63;8.68;;;;;;;5.90;79.26;98083.13;5367169;26;20009;-86
2024/04/19 04:59:34;;;;;;;14.25;8.95;;;;;;;5.36;80.47;98016.66;5346157;26;20004;-86
2024/04/19 05:02:00;;;;;;;14.10;8.23;;;;;;;5.58;79.48;98009.69;5375118;26;20008;-86
2024/04/19 05:04:25;;;;;;;11.20;8.10;;;;;;;6.06;79.71;98089.50;5386054;26;20422;-86
2024/04/19 05:06:52;;;;;;;7.47;6.75;;;;;;;5.93;80.09;98058.81;5380412;26;20000;-87
2024/04/19 05:09:18;;;;;;;15.07;8.70;;;;;;;5.93;80.85;98064.13;5378483;26;20000;-87
2024/04/19 05:11:44;;;;;;;7.20;6.38;;;;;;;5.78;80.29;97997.63;5384755;26;20006;-87
2024/04/19 05:14:09;;;;;;;8.98;6.32;;;;;;;4.60;81.50;97903.28;5382411;26;20000;-87
2024/04/19 05:16:35;;;;;;;7.70;5.15;;;;;;;5.56;81.29;98007.28;5352000;26;20016;-87
2024/04/19 05:19:00;;;;;;;8.07;6.53;;;;;;;5.83;81.18;98039.28;5377845;26;19996;-85
2024/04/19 05:21:25;;;;;;;12.32;7.20;;;;;;;5.88;80.99;98040.19;5361874;26;19996;-86
2024/04/19 05:23:51;;;;;;;8.43;6.30;;;;;;;5.60;81.54;98044.66;5383220;26;20011;-86
2024/04/19 05:26:16;;;;;;;8.05;6.53;;;;;;;5.47;80.76;97969.00;5382852;26;19996;-85
2024/04/19 05:28:42;;;;;;;9.65;5.82;;;;;;;5.77;81.50;98027.78;5350880;26;20015;-86
2024/04/19 05:31:07;;;;;;;8.20;5.63;;;;;;;5.39;82.08;97987.91;5380255;26;20012;-86
2024/04/19 05:33:32;;;;;;;10.50;6.70;;;;;;;5.76;81.92;98020.88;5320091;26;20011;-85
2024/04/19 05:35:58;;;;;;;9.38;7.10;;;;;;;5.15;82.28;97936.13;5354287;26;20065;-86
2024/04/19 05:38:23;;;;;;;8.85;6.78;;;;;;;5.34;82.06;97961.34;5382536;26;20011;-86
2024/04/19 05:40:48;;;;;;;7.68;6.07;;;;;;;5.72;81.44;97990.59;5383335;26;20004;-85
2024/04/19 05:43:14;;;;;;;10.13;6.70;;;;;;;5.81;81.70;98020.97;5383743;26;20004;-86
2024/04/19 05:45:40;;;;;;;8.60;6.13;;;;;;;5.72;82.67;97998.56;5349621;26;20012;-85
2024/04/19 05:48:06;;;;;;;8.40;5.85;;;;;;;5.53;82.76;97986.56;5376998;26;19996;-85
2024/04/19 05:50:32;;;;;;;10.43;6.43;;;;;;;5.74;82.14;97977.97;5381174;26;20105;-86
2024/04/19 05:52:58;;;;;;;8.40;6.63;;;;;;;5.10;82.35;97873.38;5381681;26;20000;-86
2024/04/19 05:55:23;;;;;;;6.82;5.53;;;;;;;5.70;82.23;97958.28;5371590;26;20005;-86
2024/04/19 05:57:49;;;;;;;7.07;5.97;;;;;;;5.89;82.05;97970.31;5383617;26;20000;-86
2024/04/19 06:00:15;;;;;;;7.28;5.15;;;;;;;5.53;82.24;97917.75;5382897;26;20333;-86
2024/04/19 06:02:40;;;;;;;7.18;5.80;;;;;;;5.11;82.59;97872.31;5384020;26;20000;-85
2024/04/19 06:05:06;;;;;;;7.88;5.93;;;;;;;5.07;82.71;97857.97;5377555;26;20471;-86
2024/04/19 06:07:32;;;;;;;9.45;5.82;;;;;;;5.20;82.46;97844.44;5372587;26;20058;-85
2024/04/19 06:09:57;;;;;;;8.20;5.65;;;;;;;5.56;82.63;97900.59;5409429;26;20019;-85
2024/04/19 06:12:22;;;;;;;7.15;5.40;;;;;;;5.85;82.30;97952.50;5346973;26;20009;-86
2024/04/19 06:14:48;;;;;;;9.43;5.22;;;;;;;5.74;82.24;97924.22;5383215;26;20076;-86
2024/04/19 06:17:13;;;;;;;7.70;5.68;;;;;;;5.91;82.53;97943.59;5383131;26;20015;-86
2024/04/19 06:19:38;;;;;;;6.70;5.30;;;;;;;5.25;82.63;97827.84;5385091;26;20004;-86
2024/04/19 06:22:04;;;;;;;8.30;5.35;;;;;;;5.83;83.04;97920.13;5348862;26;20037;-86
2024/04/19 06:24:31;;;;;;;6.07;4.55;;;;;;;5.86;82.03;97917.00;5384065;26;20008;-86
2024/04/19 06:26:56;;;;;;;11.43;6.32;;;;;;;5.60;82.63;97885.84;5386067;26;20035;-86
2024/04/19 06:29:22;;;;;;;4.05;3.65;;;;;;;5.31;82.94;97829.53;5385439;26;20007;-86
2024/04/19 06:31:47;;;;;;;9.55;5.22;;;;;;;5.81;83.44;97912.41;5356781;26;20000;-86
2024/04/19 06:34:13;;;;;;;5.88;4.15;;;;;;;5.35;82.37;97787.53;5386193;26;19996;-86
2024/04/19 06:36:39;;;;;;;6.00;4.60;;;;;;;5.92;83.21;97908.91;5384624;26;20067;-86
2024/04/19 06:39:07;;;;;;;5.00;3.80;;;;;;;5.73;82.97;97864.34;5376690;26;20741;-87
2024/04/19 06:41:34;;;;;;;4.13;2.90;;;;;;;5.95;82.60;97883.78;5386962;26;20012;-87
2024/04/19 06:44:00;;;;;;;10.68;3.78;;;;;;;5.32;82.88;97815.28;5390010;26;20019;-87
2024/04/19 06:46:25;;;;;;;3.17;2.80;;;;;;;5.02;82.68;97794.41;5387537;26;20352;-86
2024/04/19 06:48:51;;;;;;;7.20;2.70;;;;;;;5.01;82.57;97774.28;5386737;26;20000;-86
2024/04/19 06:51:16;;;;;;;3.05;2.53;;;;;;;5.89;82.86;97885.56;5385452;26;20000;-86
2024/04/19 06:53:41;;;;;;;3.22;2.60;;;;;;;5.41;82.75;97802.44;5385021;26;20015;-86
2024/04/19 06:56:07;;;;;;;2.65;2.38;;;;;;;5.68;82.18;97846.53;5353283;26;19996;-86
2024/04/19 06:58:32;;;;;;;3.35;2.00;;;;;;;5.44;82.89;97808.06;5381832;26;20085;-86
2024/04/19 07:00:57;;;;;;;1.80;1.63;;;;;;;5.81;82.29;97866.63;5383767;26;20440;-86
2024/04/19 07:03:23;;;;;;;2.10;1.90;;;;;;;5.60;82.56;97844.31;5355913;26;20008;-86
2024/04/19 07:05:48;;;;;;;2.20;1.90;;;;;;;5.79;82.39;97847.50;5382208;26;20008;-86
2024/04/19 07:08:14;;;;;;;4.55;1.77;;;;;;;5.16;82.55;97748.09;5341842;26;20003;-86
2024/04/19 07:10:40;;;;;;;2.45;1.88;;;;;;;5.33;81.85;97762.13;5386611;26;20011;-85
2024/04/19 07:13:05;;;;;;;2.22;2.00;;;;;;;5.93;82.46;97846.97;5381138;26;20236;-86
2024/04/19 07:15:31;;;;;;;3.90;2.70;;;;;;;5.38;82.06;97771.97;5365260;26;20000;-87
2024/04/19 07:17:56;;;;;;;3.78;2.00;;;;;;;5.63;82.41;97798.03;5390414;26;19996;-85
2024/04/19 07:20:22;;;;;;;1.92;1.77;;;;;;;5.29;82.54;97753.06;5360977;26;20456;-86
2024/04/19 07:22:47;;;;;;;3.50;2.25;;;;;;;5.73;83.16;97820.16;5379897;26;20337;-86
2024/04/19 07:25:13;;;;;;;1.60;1.50;;;;;;;5.57;82.35;97801.66;5386095;26;20000;-86
2024/04/19 07:27:38;;;;;;;2.80;1.35;;;;;;;5.43;82.29;97782.66;5371156;26;20004;-86
2024/04/19 07:30:04;;;;;;;2.67;2.08;;;;;;;5.61;82.20;97794.81;5353700;26;20007;-86
2024/04/19 07:32:29;;;;;;;3.63;2.28;;;;;;;5.76;82.21;97803.78;5387013;26;20362;-86
2024/04/19 07:34:55;;;;;;;2.05;1.80;;;;;;;5.53;82.80;97803.97;5383978;26;20008;-86
2024/04/19 07:37:20;;;;;;;2.65;1.92;;;;;;;5.44;83.08;97792.16;5349582;26;20007;-85
2024/04/19 07:39:45;;;;;;;2.40;2.20;;;;;;;5.50;82.85;97787.78;5355954;26;20000;-85
2024/04/19 07:42:11;;;;;;;14.23;2.67;;;;;;;5.61;82.49;97811.50;5382148;26;20425;-86
2024/04/19 07:44:36;;;;;;;2.88;2.20;;;;;;;5.57;82.38;97813.00;5384540;26;19996;-85
2024/04/19 07:47:01;;;;;;;3.67;1.77;;;;;;;5.17;82.66;97733.03;5347769;26;20008;-84
2024/04/19 07:49:27;;;;;;;2.70;1.98;;;;;;;5.44;83.43;97786.88;5379812;26;20454;-86
2024/04/19 07:51:53;;;;;;;2.53;1.75;;;;;;;5.54;83.77;97802.13;5324386;26;20000;-85
2024/04/19 07:54:19;;;;;;;4.22;1.90;;;;;;;5.47;82.81;97773.19;5375498;26;20005;-85
2024/04/19 07:56:46;;;;;;;4.15;2.13;;;;;;;5.20;84.17;97780.94;5383256;26;20012;-85
2024/04/19 07:59:12;;;;;;;2.00;1.90;;;;;;;5.45;83.40;97783.22;5384005;26;20000;-85
2024/04/19 08:01:37;;;;;;;2.10;1.95;;;;;;;5.56;83.62;97790.25;5350871;26;20345;-85
2024/04/19 08:04:03;;;;;;;4.40;2.42;;;;;;;5.45;83.61;97759.38;5380226;26;20377;-86
2024/04/19 08:06:28;;;;;;;2.83;1.88;;;;;;;5.59;83.82;97781.03;5373249;26;20004;-85
2024/04/19 08:08:54;;;;;;;2.50;1.67;;;;;;;5.61;83.71;97789.53;5374820;26;20015;-85
2024/04/19 08:11:19;;;;;;;2.10;1.88;;;;;;;5.61;83.18;97734.75;5393836;26;20003;-86
2024/04/19 08:13:45;;;;;;;3.05;1.85;;;;;;;5.75;83.13;97775.69;5375320;26;19996;-86
2024/04/19 08:16:10;;;;;;;1.55;1.45;;;;;;;4.82;83.39;97624.09;5358219;26;20000;-86
2024/04/19 08:18:35;;;;;;;1.95;1.85;;;;;;;5.86;83.57;97769.53;5374707;26;20344;-84
2024/04/19 08:21:01;;;;;;;2.10;1.73;;;;;;;5.72;82.97;97739.13;5382600;26;20059;-86
2024/04/19 08:23:26;;;;;;;5.22;2.13;;;;;;;5.75;83.21;97728.06;5385413;26;20004;-86
2024/04/19 08:25:52;;;;;;;2.08;1.92;;;;;;;5.79;83.51;97739.75;5355407;26;20414;-87
2024/04/19 08:28:18;;;;;;;3.20;1.65;;;;;;;5.58;83.86;97719.34;5381504;26;20000;-86
2024/04/19 08:30:45;;;;;;;3.33;1.70;;;;;;;5.84;82.71;97729.25;5358122;26;19996;-86
2024/04/19 08:33:10;;;;;;;2.88;1.58;;;;;;;6.15;83.13;97767.53;5355436;26;20434;-86
2024/04/19 08:35:36;;;;;;;2.67;1.70;;;;;;;5.78;82.86;97708.22;5380298;26;20004;-86
2024/04/19 08:38:01;;;;;;;2.47;1.52;;;;;;;6.26;82.75;97766.59;5380698;26;20008;-86
2024/04/19 08:40:31;;;;;;;1.38;1.30;;;;;;;6.12;82.75;97743.38;5404379;26;20024;-86
2024/04/19 08:42:56;;;;;;;1.63;1.30;;;;;;;5.61;82.75;97671.25;5384068;26;20019;-87
2024/04/19 08:45:23;;;;;;;4.78;1.52;;;;;;;6.25;82.90;97767.63;5376706;26;20001;-86
2024/04/19 08:47:49;;;;;;;2.10;1.23;;;;;;;5.91;82.97;97716.66;5384159;26;20000;-85
2024/04/19 08:50:16;;;;;;;1.40;1.30;;;;;;;6.03;83.58;97727.09;5389930;26;20377;-86
2024/04/19 08:52:45;;;;;;;1.50;1.40;;;;;;;6.29;83.51;97746.78;5383056;26;19996;-86
2024/04/19 08:55:12;;;;;;;1.92;1.10;;;;;;;6.22;83.60;97756.75;5378928;26;20049;-86
2024/04/19 08:57:41;;;;;;;1.30;1.20;;;;;;;6.15;83.66;97734.94;5381623;26;20011;-86
2024/04/19 09:00:10;;;;;;;4.72;1.40;;;;;;;6.33;83.31;97756.63;5382959;26;20059;-86
2024/04/19 09:02:35;;;;;;;2.97;1.85;;;;;;;6.26;83.45;97723.41;5385041;26;20340;-86
2024/04/19 09:05:01;;;;;;;1.90;1.40;;;;;;;6.12;83.79;97712.38;5386657;26;20075;-87
2024/04/19 09:07:29;;;;;;;3.42;1.55;;;;;;;6.39;83.69;97752.16;5385317;26;20344;-87
2024/04/19 09:09:56;;;;;;;1.52;1.42;;;;;;;5.79;83.88;97665.63;5385400;26;20000;-86
2024/04/19 09:12:21;;;;;;;1.70;1.40;;;;;;;6.38;84.01;97761.16;5383160;26;20436;-86
2024/04/19 09:14:51;;;;;;;4.35;1.25;;;;;;;6.53;83.17;97750.75;5374603;26;20000;-86
2024/04/19 09:17:16;;;;;;;3.53;1.50;;;;;;;6.30;84.24;97732.47;5385306;26;20015;-86
2024/04/19 09:19:42;;;;;;;1.35;1.25;;;;;;;6.50;83.51;97756.53;5389372;26;20012;-86
2024/04/19 09:22:07;;;;;;;3.10;1.20;;;;;;;5.66;83.79;97638.72;5383475;26;20012;-86
2024/04/19 09:24:33;;;;;;;1.50;1.20;;;;;;;6.45;83.70;97740.56;5385236;26;20000;-87
2024/04/19 09:27:00;;;;;;;1.73;1.17;;;;;;;6.37;83.85;97735.72;5384232;26;20008;-86
2024/04/19 09:29:26;;;;;;;3.45;1.20;;;;;;;5.93;83.53;97651.00;5384872;26;20000;-86
2024/04/19 09:31:51;;;;;;;1.05;1.02;;;;;;;6.63;82.92;97730.44;5382362;26;20356;-86
2024/04/19 09:34:17;;;;;;;1.30;1.20;;;;;;;6.69;82.93;97728.63;5371197;26;20007;-86
2024/04/19 09:36:48;;;;;;;0.90;0.90;;;;;;;6.55;82.77;97704.34;5384208;26;20000;-86
2024/04/19 09:39:15;;;;;;;1.60;0.90;;;;;;;6.67;83.19;97726.22;5353531;26;20005;-86
2024/04/19 09:41:41;;;;;;;1.08;1.00;;;;;;;6.35;83.22;97671.56;5384147;26;20076;-85
2024/04/19 09:44:09;;;;;;;1.20;1.00;;;;;;;6.77;83.08;97717.59;5383745;26;20042;-86
2024/04/19 09:46:39;;;;;;;0.90;0.90;;;;;;;6.79;82.80;97712.81;5386263;26;20826;-87
2024/04/19 09:49:07;;;;;;;0.95;0.95;;;;;;;6.13;83.94;97623.13;5385520;26;19996;-87
2024/04/19 09:51:45;;;;;;;2.60;0.88;;;;;;;6.46;84.00;97667.97;5355424;26;20525;-86
2024/04/19 09:54:12;;;;;;;2.00;0.98;;;;;;;6.71;83.78;97707.97;5384321;26;20000;-87
2024/04/19 09:56:50;;;;;;;1.27;1.15;;;;;;;6.67;84.56;97699.72;5413165;26;20028;-86
2024/04/19 09:59:18;;;;;;;0.80;0.80;;;;;;;6.50;84.40;97666.41;5388246;26;20068;-86
2024/04/19 10:01:44;;;;;;;1.27;1.15;;;;;;;6.53;83.81;97663.28;5387390;26;20011;-86
2024/04/19 10:04:11;;;;;;;1.15;1.05;;;;;;;6.08;84.57;97576.19;5357677;26;20036;-86
2024/04/19 10:06:37;;;;;;;1.20;1.10;;;;;;;6.09;84.89;97592.91;5384167;26;20011;-86
2024/04/19 10:09:08;;;;;;;1.08;0.98;;;;;;;6.69;85.45;97700.28;5376414;26;20476;-86
2024/04/19 10:11:37;;;;;;;1.05;0.90;;;;;;;6.84;84.37;97704.13;5386810;26;20011;-86
2024/04/19 10:14:03;;;;;;;0.90;0.90;;;;;;;6.60;85.09;97662.00;5386606;26;20008;-86
2024/04/19 10:16:29;;;;;;;0.70;0.70;;;;;;;6.22;84.64;97603.91;5388044;26;20019;-86
2024/04/19 10:18:54;;;;;;;0.90;0.90;;;;;;;6.73;84.82;97684.63;5385817;26;20000;-86
2024/04/19 10:21:27;;;;;;;0.90;0.90;;;;;;;6.82;84.25;97689.25;5387645;26;20004;-86
2024/04/19 10:23:53;;;;;;;0.90;0.90;;;;;;;6.47;83.35;97605.94;5384213;26;20015;-86
2024/04/19 10:26:22;;;;;;;1.10;0.93;;;;;;;6.68;83.87;97644.84;5377742;26;20453;-86
2024/04/19 10:28:55;;;;;;;0.60;0.60;;;;;;;6.78;83.61;97648.38;5379916;26;20328;-86
2024/04/19 10:31:21;;;;;;;1.02;1.02;;;;;;;6.77;83.34;97638.03;5390356;26;20049;-86
2024/04/19 10:33:47;;;;;;;1.45;0.90;;;;;;;6.77;83.50;97638.03;5385839;26;20444;-86
2024/04/19 10:36:13;;;;;;;0.65;0.65;;;;;;;7.00;83.41;97666.84;5386796;26;20019;-86
2024/04/19 10:38:38;;;;;;;1.20;1.10;;;;;;;6.91;82.86;97633.88;5386537;26;20069;-86
2024/04/19 10:41:07;;;;;;;0.65;0.65;;;;;;;6.88;84.21;97654.81;5388088;26;20007;-86
2024/04/19 10:43:41;;;;;;;1.50;0.80;;;;;;;6.84;84.26;97645.78;5387384;26;20008;-86
2024/04/19 10:46:10;;;;;;;0.88;0.50;;;;;;;6.71;84.34;97623.13;5383432;26;20000;-86
2024/04/19 10:48:38;;;;;;;0.63;0.50;;;;;;;6.90;82.95;97624.34;5386650;26;20015;-86
2024/04/19 10:51:04;;;;;;;1.10;1.00;;;;;;;6.84;84.13;97651.06;5357048;26;20074;-86
2024/04/19 10:53:30;;;;;;;0.85;0.85;;;;;;;6.95;84.78;97642.13;5385505;26;20007;-86
2024/04/19 10:55:55;;;;;;;1.25;1.15;;;;;;;6.97;83.04;97627.56;5383594;26;20001;-86
2024/04/19 10:58:20;;;;;;;0.70;0.70;;;;;;;7.07;83.37;97595.00;5356665;26;20016;-85
2024/04/19 11:00:47;;;;;;;0.95;0.73;;;;;;;7.30;82.32;97627.22;5385600;26;20011;-86
2024/04/19 11:03:14;;;;;;;0.75;0.70;;;;;;;7.37;83.13;97635.78;5384525;26;20015;-86
2024/04/19 11:05:40;;;;;;;0.80;0.80;;;;;;;7.15;83.09;97570.63;5382499;26;20003;-86
2024/04/19 11:08:06;;;;;;;0.82;0.82;;;;;;;7.36;82.63;97602.31;5381055;26;20090;-85
2024/04/19 11:10:32;;;;;;;0.80;0.80;;;;;;;7.68;82.67;97623.44;5379307;26;20066;-86
2024/04/19 11:12:58;;;;;;;1.40;1.30;;;;;;;7.75;82.03;97594.78;5386968;26;20011;-85
2024/04/19 11:15:26;;;;;;;0.75;0.75;;;;;;;7.97;82.44;97619.28;5384842;26;20004;-86
2024/04/19 11:17:51;;;;;;;1.10;0.60;;;;;;;8.01;82.86;97599.13;5384257;26;20015;-86
2024/04/19 11:20:16;;;;;;;0.75;0.73;;;;;;;7.96;81.56;97577.03;5386562;26;20000;-86
2024/04/19 11:22:42;;;;;;;0.50;0.50;;;;;;;8.14;82.12;97600.47;5384933;26;20011;-85
2024/04/19 11:25:09;;;;;;;1.02;0.85;;;;;;;7.15;81.64;97445.94;5384336;26;20077;-86
2024/04/19 11:27:36;;;;;;;2.58;0.77;;;;;;;7.68;82.91;97556.25;5384720;26;20011;-85
2024/04/19 11:30:02;;;;;;;0.60;0.60;;;;;;;7.74;82.77;97573.78;5386774;26;20010;-86
2024/04/19 11:32:27;;;;;;;0.80;0.68;;;;;;;7.78;82.88;97559.72;5383900;26;20011;-85
2024/04/19 11:34:53;;;;;;;0.98;0.98;;;;;;;7.69;83.00;97545.34;5353521;26;20376;-86
2024/04/19 11:37:21;;;;;;;1.33;0.80;;;;;;;8.00;82.75;97580.75;5383149;26;20019;-86
2024/04/19 11:39:46;;;;;;;1.40;0.70;;;;;;;7.99;83.18;97572.03;5385444;26;20455;-86
2024/04/19 11:42:12;;;;;;;0.73;0.73;;;;;;;7.34;83.29;97473.56;5384215;26;19996;-85